Oakville, CA (94562)

2:58 AM PDT on October 26, 2014 (GMT -0700)
KCAOAKVI6 | Change Station
CLOSE
Current Station
Personal Weather Station
Location: Oakville, CA
Elevation: 190 ft
Nearby Weather Stations

Elev 190 ft 38.41 °N, 122.39 °W | Updated 4 minutes ago

Partly Cloudy
Partly Cloudy
50.2 °F
Feels Like 50.2 °F
N
0.0
Wind Variable Wind from NW
Gusts 0.0 mph

Today
High -- | Low -- °F
--% Chance of Precip.
Yesterday
High -- | Low -- °F
Precip. -- in
7:29 AM 6:16 PM
Waxing Crescent, 7% visible
Pressure 30.19 in
Visibility 5.0 miles
Clouds Scattered Clouds 1800 ft
Overcast 3100 ft
Dew Point 49 °F
Humidity 95%
Rainfall 0.00 in
Snow Depth Not available.
UV 0.0 out of 12
Pollen 2.40 out of 12
Ozone Good
PM2.5 Good
Flu Activity Sporadic
METAR KO69 260935Z AUTO 30003KT 5SM SCT018 OVC031 10/10 A3019 RMK AO1

More Conditions Fewer Conditions

Pressure 30.19 in
Visibility 5.0 miles
Clouds Scattered Clouds 1800 ft
Overcast 3100 ft
Dew Point 49 °F
Humidity 95%
Rainfall 0.00 in
Snow Depth Not available.
UV 0.0 out of 12
Pollen 2.40 out of 12
Ozone Good
PM2.5 Good
Flu Activity Sporadic
METAR KO69 260935Z AUTO 30003KT 5SM SCT018 OVC031 10/10 A3019 RMK AO1

More Conditions Fewer Conditions

10-Day Weather Forecast

Almanac

Astronomy

Oct. 26, 2014 Rise Set
Actual Time 7:29 AM PDT 6:16 PM PDT
Civil Twilight 7:02 AM PDT 6:43 PM PDT
Nautical Twilight 6:31 AM PDT 7:14 PM PDT
Astronomical Twilight 6:00 AM PDT 7:45 PM PDT
Moon 10:11 AM PDT 8:34 PM PDT
Length of Visible Light 11h 41m
Length of Day
10h 46m
Tomorrow will be 2m 15s shorter.
Waxing Crescent, 7% of the Moon is Illuminated
Today
Waxing Crescent
Oct 30
First Quarter
Nov 6
Full
Nov 14
Last Quarter
Nov 22
New

Today's Extremes

State Highs State Lows

Community

WunderPhotos

Upload Photos

1,765,132 photos uploaded!

Nearby

Air Quality

  Air Quality AQ Index Pollutant
Yesterday Good
PM2.5
Yesterday Good
OZONE
Current Good
PM2.5
Current Good
OZONE
Sunday Moderate
PM2.5
Monday Moderate
PM2.5
Tuesday Moderate
PM2.5
Wednesday Moderate
PM2.5

Snow Depth

Station Depth Elevation
Ward Creek #3 1 in 6750 ft
Squaw Valley 1 in 8200 ft
Rubicon #2 2 in 7500 ft
Echo Peak 4 in 7800 ft
Independence Lake 3 in 8450 ft

Earthquake Activity

City Distance Mag. Time & Date
Antioch, California 41 miles 2.7 6:42 AM PDT
2014-10-25
Deer Park, California 7 miles 2.8 6:40 AM PDT
2014-10-25
Minimum magnitude displayed is 2.5.

Coastal Water Temperatures

Place Temperature
San Francisco, CA 63.0 °F
Richmond, CA 64.0 °F
Port Chicago, CA 64.9 °F

Nearby Weather Stations